Time;durP1;ratioP1;P1;durP2;ratioP2;P2;SDS_P1;SDS_P2;PMS_P1;PMS_P2;Temp;Humidity;BMP_temperature;BMP_pressure;BME280_temperature;BME280_humidity;BME280_pressure;Samples;Min_cycle;Max_cycle;Signal;HPM_P1;HPM_P2
2022/05/11 00:00:12;;;;;;;13.07;2.85;;;;;;;12.29;77.75;101404.22;5111892;28;20527;-85
2022/05/11 00:02:38;;;;;;;11.75;2.92;;;;;;;12.27;77.80;101392.88;5111633;28;20023;-72
2022/05/11 00:05:05;;;;;;;12.43;3.10;;;;;;;12.26;78.38;101401.84;5111817;28;20076;-72
2022/05/11 00:07:31;;;;;;;10.85;3.05;;;;;;;12.27;78.25;101392.88;5110636;28;20050;-72
2022/05/11 00:09:56;;;;;;;12.35;3.63;;;;;;;12.27;78.89;101392.00;5092806;28;20464;-72
2022/05/11 00:12:22;;;;;;;14.43;2.95;;;;;;;12.26;79.12;101398.34;5111756;28;20032;-72
2022/05/11 00:19:58;;;;;;;21.30;3.30;;;;;;;12.21;80.09;101397.88;5654703;22;20106;-73
2022/05/11 00:22:23;;;;;;;12.88;3.50;;;;;;;12.18;80.22;101385.66;5052265;28;20033;-72
2022/05/11 00:24:49;;;;;;;12.65;3.00;;;;;;;12.17;79.84;101386.66;5051809;28;20102;-85
2022/05/11 00:27:14;;;;;;;13.25;3.03;;;;;;;12.13;80.28;101388.72;5051833;28;20040;-71
2022/05/11 00:29:39;;;;;;;18.38;3.40;;;;;;;12.13;80.27;101396.75;5069909;28;20040;-71
2022/05/11 00:32:05;;;;;;;14.50;2.90;;;;;;;12.13;80.41;101385.22;5069654;28;20420;-74
2022/05/11 00:34:30;;;;;;;12.77;3.00;;;;;;;12.14;80.29;101395.78;5070090;28;20040;-71
2022/05/11 00:36:57;;;;;;;10.43;3.10;;;;;;;12.15;80.23;101391.25;5051467;28;20069;-72
2022/05/11 00:39:22;;;;;;;11.40;2.67;;;;;;;12.15;79.96;101383.25;5069689;28;20032;-72
2022/05/11 00:41:48;;;;;;;14.15;3.22;;;;;;;12.16;79.90;101388.47;5069688;28;20047;-72
2022/05/11 00:44:14;;;;;;;9.18;2.80;;;;;;;12.17;79.92;101386.66;5051653;28;20032;-71
2022/05/11 00:47:01;;;;;;;11.85;2.78;;;;;;;12.15;79.86;101384.13;5073099;28;20039;-71
2022/05/11 00:49:34;;;;;;;21.20;2.95;;;;;;;12.14;79.73;101384.25;5055765;28;20489;-71
2022/05/11 00:52:12;;;;;;;12.30;3.42;;;;;;;12.12;80.10;101372.88;5073422;28;20098;-71
2022/05/11 00:54:51;;;;;;;11.55;3.05;;;;;;;12.09;80.31;101363.34;5073941;28;20047;-71
2022/05/11 00:57:23;;;;;;;10.93;2.90;;;;;;;12.09;80.14;101362.47;5073702;28;20050;-71
2022/05/11 00:59:51;;;;;;;11.65;2.78;;;;;;;12.09;80.15;101360.66;5073829;28;20039;-71
2022/05/11 01:02:18;;;;;;;9.63;2.80;;;;;;;12.09;80.16;101359.81;5073151;28;20107;-72
2022/05/11 01:04:44;;;;;;;14.00;3.63;;;;;;;12.08;80.27;101361.63;5073555;28;20040;-72
2022/05/11 01:07:12;;;;;;;12.57;3.20;;;;;;;12.07;80.21;101353.78;5073308;28;20037;-71
2022/05/11 01:09:38;;;;;;;17.80;3.10;;;;;;;12.08;80.19;101350.13;5073509;28;20035;-72
2022/05/11 01:12:12;;;;;;;14.55;2.58;;;;;;;12.08;80.11;101340.31;5073384;28;20364;-72
2022/05/11 01:14:42;;;;;;;13.68;3.00;;;;;;;12.08;80.10;101336.81;5073439;28;20029;-71
2022/05/11 01:17:10;;;;;;;13.82;3.25;;;;;;;12.08;80.18;101336.81;5072976;28;20132;-72
2022/05/11 01:19:41;;;;;;;14.95;3.75;;;;;;;12.06;80.18;101336.06;5055288;28;20056;-71
2022/05/11 01:22:33;;;;;;;12.48;3.30;;;;;;;12.03;80.40;101329.19;5072800;28;20352;-72
2022/05/11 01:24:59;;;;;;;13.52;2.92;;;;;;;12.04;80.19;101330.88;5072824;28;20113;-72
2022/05/11 01:27:27;;;;;;;17.27;3.67;;;;;;;12.02;80.16;101327.53;5072988;28;20082;-72
2022/05/11 01:29:55;;;;;;;12.52;2.78;;;;;;;12.05;79.89;101337.06;5073025;28;20068;-72
2022/05/11 01:32:22;;;;;;;19.65;3.38;;;;;;;12.07;79.72;101330.59;5072771;28;20036;-71
2022/05/11 01:34:56;;;;;;;13.00;3.33;;;;;;;12.13;79.11;101337.22;5073433;28;20391;-71
2022/05/11 01:37:22;;;;;;;14.05;2.72;;;;;;;12.15;78.98;101324.56;5054573;28;20434;-72
2022/05/11 01:39:49;;;;;;;14.35;3.13;;;;;;;12.18;78.89;101332.31;5072901;28;20191;-72
2022/05/11 01:42:14;;;;;;;12.25;2.80;;;;;;;12.19;78.73;101333.16;5072569;28;20064;-72
2022/05/11 01:44:40;;;;;;;11.13;2.55;;;;;;;12.19;78.61;101323.31;5073011;28;20090;-72
2022/05/11 01:47:06;;;;;;;14.65;3.47;;;;;;;12.18;78.32;101321.63;5054414;28;20495;-72
2022/05/11 01:49:31;;;;;;;11.77;2.63;;;;;;;12.16;78.52;101318.28;5072845;28;20082;-72
2022/05/11 01:51:58;;;;;;;16.02;3.08;;;;;;;12.16;78.07;101323.59;5072800;28;20024;-72
2022/05/11 01:54:24;;;;;;;14.82;2.88;;;;;;;12.19;77.75;101325.16;5072699;28;20082;-72
2022/05/11 01:56:49;;;;;;;11.82;2.92;;;;;;;12.20;77.51;101322.34;5071591;28;20036;-72
2022/05/11 01:59:14;;;;;;;14.32;3.00;;;;;;;12.21;77.38;101315.19;5072120;28;20433;-72
2022/05/11 02:01:41;;;;;;;13.05;2.50;;;;;;;12.20;77.56;101314.34;5072807;28;20467;-72
2022/05/11 02:07:49;;;;;;;11.77;2.75;;;;;;;12.17;77.23;101309.28;5072117;28;20177;-72
2022/05/11 02:09:38;;;;;;;7.88;2.63;;;;;;;12.17;76.85;101317.31;5072655;28;20166;-73
2022/05/11 02:12:04;;;;;;;12.48;3.00;;;;;;;12.15;76.88;101311.25;5072236;28;20234;-73
2022/05/11 02:14:29;;;;;;;13.35;2.33;;;;;;;12.13;76.54;101302.53;5072470;28;20036;-72
2022/05/11 02:16:55;;;;;;;11.07;2.67;;;;;;;12.12;76.32;101306.19;5072525;28;20513;-72
2022/05/11 02:19:20;;;;;;;9.65;2.70;;;;;;;12.13;76.40;101305.22;5050233;28;20500;-72
2022/05/11 02:21:46;;;;;;;10.57;2.63;;;;;;;12.12;76.54;101304.38;5050725;28;20033;-72
2022/05/11 02:24:12;;;;;;;6.90;2.30;;;;;;;12.11;75.99;101293.84;5033853;28;20112;-72
2022/05/11 02:26:37;;;;;;;7.75;2.80;;;;;;;12.12;75.67;101291.03;5052163;28;20125;-72
2022/05/11 02:29:03;;;;;;;11.45;2.60;;;;;;;12.14;75.07;101285.56;5052418;28;20068;-72
2022/05/11 02:31:28;;;;;;;10.52;2.85;;;;;;;12.15;75.26;101285.44;5051989;28;20035;-72
2022/05/11 02:33:53;;;;;;;12.95;2.60;;;;;;;12.14;74.74;101286.41;5052070;28;20048;-72
2022/05/11 02:36:19;;;;;;;7.43;2.17;;;;;;;12.15;74.10;101287.22;5051643;28;20033;-72
2022/05/11 02:38:44;;;;;;;8.43;2.50;;;;;;;12.15;74.13;101288.09;5052079;28;20044;-72
2022/05/11 02:41:10;;;;;;;9.68;2.28;;;;;;;12.16;73.85;101284.44;5050467;28;20090;-72
2022/05/11 02:43:35;;;;;;;11.48;2.38;;;;;;;12.15;73.67;101288.09;5051797;28;20033;-71
2022/05/11 02:46:01;;;;;;;11.05;2.60;;;;;;;12.13;73.58;101283.88;5051684;28;20036;-72
2022/05/11 02:48:30;;;;;;;8.27;2.40;;;;;;;12.12;73.89;101280.38;5051677;28;20448;-72
2022/05/11 02:50:57;;;;;;;8.63;2.60;;;;;;;12.09;73.78;101279.78;5051455;28;20047;-72
2022/05/11 02:53:24;;;;;;;15.38;2.75;;;;;;;12.07;74.16;101281.75;5051550;28;20527;-72
2022/05/11 02:55:52;;;;;;;12.13;2.80;;;;;;;12.04;73.91;101282.88;5050293;28;20044;-72
2022/05/11 02:58:19;;;;;;;11.45;2.55;;;;;;;12.03;74.27;101281.19;5050075;28;20431;-72
2022/05/11 03:00:48;;;;;;;11.90;2.40;;;;;;;12.02;73.84;101282.19;5051737;28;20075;-71
2022/05/11 03:03:15;;;;;;;12.68;2.92;;;;;;;12.01;74.16;101285.81;5050996;28;20174;-72
2022/05/11 03:05:41;;;;;;;8.95;2.63;;;;;;;12.02;74.13;101283.97;5051492;28;20033;-72
2022/05/11 03:08:07;;;;;;;9.43;2.17;;;;;;;12.02;74.12;101276.84;5051805;28;20498;-71
2022/05/11 03:10:33;;;;;;;9.38;2.25;;;;;;;12.02;73.71;101271.50;5051275;28;20116;-71
2022/05/11 03:12:58;;;;;;;9.38;2.58;;;;;;;12.04;74.00;101271.38;5033244;28;20505;-71
2022/05/11 03:15:24;;;;;;;9.68;2.10;;;;;;;12.04;73.85;101266.03;5051222;28;20056;-71
2022/05/11 03:17:50;;;;;;;8.15;2.40;;;;;;;12.03;73.92;101262.50;5049859;28;20399;-71
2022/05/11 03:20:17;;;;;;;6.97;2.42;;;;;;;12.02;73.91;101262.66;5061573;28;20078;-72
2022/05/11 03:22:43;;;;;;;12.05;2.80;;;;;;;12.03;73.68;101261.69;5071648;28;20044;-72
2022/05/11 03:25:09;;;;;;;8.57;2.00;;;;;;;12.01;73.55;101261.81;5071236;28;20131;-71
2022/05/11 03:27:35;;;;;;;5.88;1.85;;;;;;;12.01;73.85;101264.47;5070613;28;20093;-72
2022/05/11 03:30:00;;;;;;;11.32;2.08;;;;;;;12.01;73.57;101260.97;5052835;28;20491;-72
2022/05/11 03:35:10;;;;;;;13.20;2.20;;;;;;;11.99;73.49;101251.28;5071185;28;20098;-73
2022/05/11 03:37:37;;;;;;;11.60;2.22;;;;;;;11.98;73.43;101252.25;5052435;28;20043;-73
2022/05/11 03:40:05;;;;;;;12.45;3.60;;;;;;;12.00;73.58;101246.78;5070542;28;20028;-71
2022/05/11 03:42:32;;;;;;;7.75;2.75;;;;;;;11.99;74.04;101253.94;5070312;28;20093;-72
2022/05/11 03:45:13;;;;;;;10.52;2.17;;;;;;;11.98;73.81;101249.59;5070592;28;20077;-72
2022/05/11 03:47:39;;;;;;;9.45;1.92;;;;;;;11.96;73.88;101235.56;5070666;28;20033;-73
2022/05/11 03:50:06;;;;;;;10.85;2.13;;;;;;;11.96;73.82;101232.06;5070641;28;20032;-73
2022/05/11 03:52:32;;;;;;;6.47;2.00;;;;;;;11.97;73.07;101241.72;5070457;28;20029;-72
2022/05/11 03:54:57;;;;;;;10.52;2.20;;;;;;;11.96;73.36;101229.41;5052267;28;20029;-72
2022/05/11 03:57:23;;;;;;;8.32;2.10;;;;;;;11.96;72.98;101227.56;5052227;28;20352;-73
2022/05/11 03:59:48;;;;;;;8.70;1.90;;;;;;;12.00;72.38;101236.13;5052474;28;20122;-72
2022/05/11 04:02:13;;;;;;;10.02;2.60;;;;;;;12.05;71.96;101227.72;5070643;28;20333;-72
2022/05/11 04:04:39;;;;;;;4.97;1.77;;;;;;;12.07;71.55;101236.41;5052432;28;20072;-72
2022/05/11 04:07:04;;;;;;;9.77;2.58;;;;;;;12.11;71.11;101237.84;5052383;28;20033;-73
2022/05/11 04:09:30;;;;;;;10.52;2.00;;;;;;;12.14;70.35;101227.72;5069953;28;20111;-72
2022/05/11 04:11:55;;;;;;;13.73;1.90;;;;;;;12.16;70.29;101230.25;5070536;28;20104;-72
2022/05/11 04:14:21;;;;;;;11.27;2.00;;;;;;;12.15;70.35;101225.88;5052010;28;20028;-73
2022/05/11 04:16:47;;;;;;;12.30;2.40;;;;;;;12.16;70.08;101231.06;5052102;28;20025;-72
2022/05/11 04:19:13;;;;;;;7.32;1.80;;;;;;;12.15;69.45;101225.88;5070160;28;20037;-72
2022/05/11 04:21:39;;;;;;;8.65;2.08;;;;;;;12.14;69.46;101226.88;5073370;28;20154;-72
2022/05/11 04:24:04;;;;;;;9.90;1.95;;;;;;;12.12;69.92;101226.16;5074709;28;20115;-72
2022/05/11 04:26:32;;;;;;;9.13;1.80;;;;;;;12.12;69.38;101228.84;5074092;28;20530;-72
2022/05/11 04:28:57;;;;;;;6.82;1.50;;;;;;;12.12;69.27;101229.69;5039899;28;20123;-73
2022/05/11 04:31:22;;;;;;;8.30;2.00;;;;;;;12.13;69.11;101222.53;5074346;28;20024;-72
2022/05/11 04:33:50;;;;;;;10.45;1.63;;;;;;;12.14;68.70;101216.22;5056452;28;20040;-72
2022/05/11 04:36:16;;;;;;;8.15;2.30;;;;;;;12.15;68.71;101226.75;5056690;28;20055;-72
2022/05/11 04:38:41;;;;;;;10.25;2.03;;;;;;;12.14;69.29;101218.88;5056269;28;20048;-72
2022/05/11 04:41:07;;;;;;;3.28;1.42;;;;;;;12.19;68.62;101219.28;5074163;28;20028;-73
2022/05/11 04:43:33;;;;;;;5.57;1.60;;;;;;;12.23;68.09;101215.38;5074215;28;20035;-72
2022/05/11 04:45:58;;;;;;;7.95;2.30;;;;;;;12.28;68.17;101220.28;5074862;28;20532;-72
2022/05/11 04:48:24;;;;;;;4.18;1.50;;;;;;;12.31;67.98;101220.81;5056972;28;20389;-72
2022/05/11 04:50:50;;;;;;;4.97;1.65;;;;;;;12.35;67.27;101232.91;5040499;28;20036;-73
2022/05/11 04:53:17;;;;;;;10.98;1.77;;;;;;;12.39;66.88;101232.63;5074794;28;20028;-73
2022/05/11 04:55:46;;;;;;;7.88;1.67;;;;;;;12.44;66.46;101233.06;5074480;28;20193;-72
2022/05/11 04:58:12;;;;;;;5.68;1.33;;;;;;;12.47;66.87;101232.78;5056779;28;20032;-72
2022/05/11 05:00:37;;;;;;;8.50;2.90;;;;;;;12.49;66.74;101231.63;5074409;28;20046;-72
2022/05/11 05:03:08;;;;;;;14.75;2.65;;;;;;;12.50;66.68;101222.66;5074934;28;20440;-72
2022/05/11 05:05:33;;;;;;;7.47;2.35;;;;;;;12.53;67.19;101229.53;5074167;28;20449;-74
2022/05/11 05:07:59;;;;;;;5.90;1.80;;;;;;;12.52;66.40;101234.03;5074393;28;20036;-74
2022/05/11 05:10:24;;;;;;;7.38;1.65;;;;;;;12.49;66.64;101228.97;5074695;28;20040;-74
2022/05/11 05:12:50;;;;;;;10.73;1.88;;;;;;;12.45;66.34;101227.56;5074312;28;20031;-74
2022/05/11 05:15:17;;;;;;;6.43;1.70;;;;;;;12.39;66.33;101230.81;5074327;28;20120;-73
2022/05/11 05:17:43;;;;;;;6.35;1.83;;;;;;;12.33;66.87;101228.69;5073748;28;20033;-75
2022/05/11 05:20:11;;;;;;;5.45;1.48;;;;;;;12.30;67.07;101237.84;5073053;28;20111;-73
2022/05/11 05:22:37;;;;;;;11.13;2.05;;;;;;;12.31;67.29;101239.50;5065770;28;20028;-75
2022/05/11 05:25:04;;;;;;;7.00;2.03;;;;;;;12.35;67.61;101240.91;5048049;28;20052;-74
2022/05/11 05:27:30;;;;;;;6.70;2.17;;;;;;;12.42;67.13;101241.22;5032258;28;20041;-73
2022/05/11 05:32:43;;;;;;;5.72;2.03;;;;;;;12.62;66.60;101228.66;5050908;28;20201;-73
2022/05/11 05:35:11;;;;;;;6.68;1.83;;;;;;;12.75;66.56;101240.88;5060805;28;20029;-73
2022/05/11 05:37:38;;;;;;;12.00;1.50;;;;;;;12.92;66.47;101247.31;5069756;28;20112;-74
2022/05/11 05:40:05;;;;;;;8.55;1.70;;;;;;;13.05;65.25;101238.00;5070182;28;20537;-72
2022/05/11 05:42:30;;;;;;;9.50;2.28;;;;;;;13.25;64.88;101248.59;5069750;28;20036;-75
2022/05/11 05:44:56;;;;;;;10.30;2.05;;;;;;;13.40;63.90;101240.97;5051908;28;20056;-74
2022/05/11 05:47:21;;;;;;;14.35;2.28;;;;;;;13.47;63.92;101249.25;5070311;28;20040;-76
2022/05/11 05:49:47;;;;;;;11.73;2.42;;;;;;;13.59;63.82;101248.06;5037736;28;20046;-74
2022/05/11 05:52:21;;;;;;;7.85;1.85;;;;;;;13.72;63.55;101240.53;5070215;28;20028;-73
2022/05/11 05:54:47;;;;;;;15.98;2.08;;;;;;;13.86;62.88;101238.34;5070278;28;20037;-74
2022/05/11 05:57:14;;;;;;;6.20;1.65;;;;;;;13.91;62.65;101252.94;5070200;28;20510;-74
2022/05/11 05:59:40;;;;;;;14.35;2.22;;;;;;;13.96;62.16;101239.13;5069310;28;20044;-74
2022/05/11 06:02:09;;;;;;;7.15;1.80;;;;;;;13.90;62.98;101245.06;5052704;28;20428;-75
2022/05/11 06:04:35;;;;;;;8.30;1.90;;;;;;;13.93;62.86;101242.94;5070606;28;20476;-73
2022/05/11 06:07:00;;;;;;;13.27;2.33;;;;;;;13.96;63.26;101246.28;5052543;28;20081;-76
2022/05/11 06:09:25;;;;;;;11.90;2.53;;;;;;;14.02;63.27;101245.69;5070646;28;20047;-78
2022/05/11 06:11:51;;;;;;;13.25;3.08;;;;;;;14.15;63.17;101239.97;5070117;28;20166;-75
2022/05/11 06:14:16;;;;;;;9.13;2.17;;;;;;;14.20;63.41;101243.03;5068040;28;20085;-74
2022/05/11 06:16:42;;;;;;;7.18;1.70;;;;;;;14.27;62.77;101244.06;5070518;28;20117;-74
2022/05/11 06:19:07;;;;;;;15.98;2.55;;;;;;;14.39;62.70;101229.47;5070696;28;20483;-74
2022/05/11 06:21:34;;;;;;;6.53;1.70;;;;;;;14.43;61.85;101230.84;5070599;28;20127;-74
2022/05/11 06:23:59;;;;;;;7.35;1.80;;;;;;;14.57;60.75;101229.47;5052185;28;20389;-74
2022/05/11 06:26:25;;;;;;;5.78;1.60;;;;;;;14.71;60.04;101237.97;5070462;28;20074;-74
2022/05/11 06:28:50;;;;;;;8.07;2.28;;;;;;;14.83;60.07;101235.88;5069981;28;20039;-74
2022/05/11 06:31:15;;;;;;;9.48;1.90;;;;;;;14.91;59.90;101227.88;5052464;28;20067;-74
2022/05/11 06:33:46;;;;;;;9.82;2.33;;;;;;;14.83;58.63;101233.19;5051981;28;20443;-75
2022/05/11 06:36:11;;;;;;;8.43;1.90;;;;;;;14.76;59.30;101233.81;5069889;28;20149;-74
2022/05/11 06:38:37;;;;;;;7.65;1.95;;;;;;;14.81;58.95;101233.34;5069619;28;20070;-80
2022/05/11 06:41:15;;;;;;;6.35;1.70;;;;;;;14.91;58.28;101234.09;5070389;28;20041;-74
2022/05/11 06:43:41;;;;;;;8.18;2.00;;;;;;;14.97;58.31;101235.25;5068959;28;20448;-73
2022/05/11 06:46:07;;;;;;;6.75;1.95;;;;;;;15.06;58.32;101234.34;5051794;28;20036;-73
2022/05/11 06:48:32;;;;;;;10.38;2.17;;;;;;;15.13;58.63;101237.19;5070034;28;20074;-73
2022/05/11 06:50:58;;;;;;;12.68;2.40;;;;;;;15.18;58.63;101244.75;5069273;28;20624;-72
2022/05/11 06:53:24;;;;;;;7.60;1.95;;;;;;;15.13;59.18;101237.19;5052252;28;20115;-73
2022/05/11 07:01:17;;;;;;;10.90;2.30;;;;;;;15.28;59.32;101227.56;5069840;28;20499;-76
2022/05/11 07:03:42;;;;;;;9.52;2.17;;;;;;;15.47;60.09;101222.97;5069077;28;20052;-73
2022/05/11 07:06:08;;;;;;;10.02;2.22;;;;;;;15.46;59.51;101224.78;5069957;28;20040;-74
2022/05/11 07:08:39;;;;;;;6.78;1.83;;;;;;;15.43;59.81;101222.44;5069882;28;20459;-73
2022/05/11 07:13:49;;;;;;;16.67;2.83;;;;;;;15.44;60.35;101224.13;5054322;28;20048;-73
2022/05/11 07:16:16;;;;;;;11.23;2.67;;;;;;;15.45;60.48;101219.56;5071360;28;20123;-72
2022/05/11 07:18:41;;;;;;;8.80;2.08;;;;;;;15.49;60.17;101232.50;5072543;28;20056;-74
2022/05/11 07:21:07;;;;;;;17.88;2.72;;;;;;;15.47;60.61;101225.63;5072009;28;20091;-72
2022/05/11 07:23:33;;;;;;;13.45;3.05;;;;;;;15.30;61.04;101230.06;5072230;28;20032;-74
2022/05/11 07:25:59;;;;;;;11.82;2.03;;;;;;;15.10;61.94;101227.63;5071782;28;20035;-75
2022/05/11 07:28:24;;;;;;;13.88;2.78;;;;;;;15.03;62.81;101223.91;5071908;28;20403;-72
2022/05/11 07:30:51;;;;;;;12.52;2.63;;;;;;;15.03;63.47;101231.94;5071624;28;20115;-72
2022/05/11 07:33:17;;;;;;;10.90;2.45;;;;;;;15.18;62.91;101226.00;5071888;28;20059;-73
2022/05/11 07:35:44;;;;;;;14.23;2.45;;;;;;;15.11;63.46;101221.28;5071895;28;20078;-71
2022/05/11 07:38:15;;;;;;;13.23;2.60;;;;;;;15.06;64.33;101238.84;5071527;28;20032;-73
2022/05/11 07:40:41;;;;;;;16.75;2.67;;;;;;;15.12;65.11;101227.47;5072019;28;20020;-74
2022/05/11 07:43:08;;;;;;;21.10;2.95;;;;;;;15.24;64.51;101236.06;5071304;28;20032;-74
2022/05/11 07:45:34;;;;;;;17.98;2.60;;;;;;;15.40;63.33;101238.84;5071730;28;20036;-74
2022/05/11 07:48:00;;;;;;;13.77;2.90;;;;;;;15.52;61.40;101234.03;5053285;28;20029;-73
2022/05/11 07:50:25;;;;;;;17.10;3.05;;;;;;;15.57;60.47;101239.75;5071699;28;20177;-72
2022/05/11 07:52:50;;;;;;;17.50;2.67;;;;;;;15.60;60.44;101231.38;5071167;28;20153;-73
2022/05/11 07:55:17;;;;;;;15.10;2.90;;;;;;;15.65;60.85;101225.53;5071819;28;20353;-72
2022/05/11 08:00:27;;;;;;;13.32;2.85;;;;;;;15.77;61.34;101229.59;5056212;28;20051;-72
2022/05/11 08:02:52;;;;;;;15.27;3.22;;;;;;;15.90;60.89;101237.19;5071043;28;20029;-73
2022/05/11 08:05:20;;;;;;;16.27;3.17;;;;;;;15.99;60.35;101235.38;5053391;28;20075;-74
2022/05/11 08:07:53;;;;;;;19.13;2.92;;;;;;;16.14;60.16;101233.72;5071556;28;20162;-74
2022/05/11 08:10:21;;;;;;;14.95;2.90;;;;;;;16.10;59.94;101237.72;5071342;28;20032;-73
2022/05/11 08:12:48;;;;;;;15.23;2.60;;;;;;;16.22;59.71;101232.88;5071587;28;20035;-72
2022/05/11 08:15:15;;;;;;;13.77;3.00;;;;;;;16.52;58.83;101238.59;5071642;28;20058;-75
2022/05/11 08:17:42;;;;;;;17.92;3.63;;;;;;;16.70;58.78;101236.53;5053995;28;20024;-75
2022/05/11 08:20:14;;;;;;;13.50;2.80;;;;;;;16.83;57.98;101245.97;5071316;28;20111;-72
2022/05/11 08:22:44;;;;;;;19.27;3.38;;;;;;;16.77;57.28;101252.84;5071181;28;20082;-74
2022/05/11 08:25:10;;;;;;;13.35;3.05;;;;;;;16.63;56.76;101248.16;5053397;28;20093;-73
2022/05/11 08:27:37;;;;;;;15.52;3.10;;;;;;;16.36;57.67;101244.78;5054253;28;20147;-72
2022/05/11 08:35:32;;;;;;;15.07;3.30;;;;;;;16.96;57.81;101243.63;5071803;28;20044;-72
2022/05/11 08:37:58;;;;;;;13.65;3.20;;;;;;;17.54;56.74;101243.41;5071578;28;20039;-73
2022/05/11 08:40:42;;;;;;;15.38;3.17;;;;;;;17.83;54.38;101247.31;5071309;28;20032;-72
2022/05/11 08:43:14;;;;;;;17.35;3.47;;;;;;;17.31;56.06;101236.09;5052656;28;20036;-72
2022/05/11 08:46:14;;;;;;;19.55;3.80;;;;;;;17.22;56.95;101253.28;5053080;28;20024;-72
2022/05/11 08:49:02;;;;;;;19.80;3.75;;;;;;;17.16;56.69;101252.13;5071229;28;20038;-73
2022/05/11 08:51:48;;;;;;;25.15;4.03;;;;;;;17.17;57.25;101250.28;5071482;28;20151;-73
2022/05/11 08:54:41;;;;;;;18.80;4.25;;;;;;;17.38;57.42;101242.47;5070523;28;20028;-73
2022/05/11 08:57:23;;;;;;;16.95;3.35;;;;;;;18.05;56.31;101237.59;5069939;28;20123;-73
2022/05/11 08:59:50;;;;;;;;;;;;;;;18.84;52.48;101238.13;5071452;28;20440;-72
2022/05/11 09:02:24;;;;;;;20.50;4.07;;;;;;;19.24;52.70;101240.56;5070230;28;20153;-72
2022/05/11 09:04:58;;;;;;;14.45;4.03;;;;;;;20.50;49.31;101240.34;5087408;28;20024;-73
2022/05/11 09:07:24;;;;;;;19.08;3.65;;;;;;;21.42;46.39;101246.59;5092297;28;20071;-75
2022/05/11 09:09:54;;;;;;;19.02;4.68;;;;;;;22.08;44.89;101247.03;5094311;28;20097;-72
2022/05/11 09:12:20;;;;;;;18.33;3.97;;;;;;;22.38;43.51;101250.25;5094802;28;20031;-72
2022/05/11 09:14:50;;;;;;;18.40;3.88;;;;;;;22.39;43.92;101251.88;5094535;28;20128;-73
2022/05/11 09:17:37;;;;;;;20.58;4.00;;;;;;;22.99;42.48;101251.88;5094424;28;20066;-72
2022/05/11 09:20:06;;;;;;;18.70;4.03;;;;;;;23.23;42.00;101244.13;5094125;28;20052;-73
2022/05/11 09:22:34;;;;;;;18.10;3.65;;;;;;;23.61;41.40;101245.22;5076170;28;20483;-72
2022/05/11 09:25:10;;;;;;;19.50;4.18;;;;;;;23.62;40.73;101244.16;5094074;28;20036;-81
2022/05/11 09:27:37;;;;;;;24.27;4.35;;;;;;;23.15;41.62;101245.16;5094216;28;20115;-72
2022/05/11 09:30:15;;;;;;;21.75;4.30;;;;;;;23.10;41.99;101255.84;5093450;28;20040;-76
2022/05/11 09:32:44;;;;;;;16.48;3.53;;;;;;;22.25;42.59;101253.72;5093964;28;20024;-73
2022/05/11 09:35:34;;;;;;;16.90;4.13;;;;;;;22.95;41.64;101245.19;5093432;28;20028;-73
2022/05/11 09:38:02;;;;;;;23.52;3.85;;;;;;;23.21;41.76;101249.78;5093861;28;20032;-74
2022/05/11 09:40:30;;;;;;;14.38;3.38;;;;;;;22.86;41.57;101252.72;5093324;28;20024;-75
2022/05/11 09:43:04;;;;;;;15.00;3.60;;;;;;;22.52;43.47;101248.34;5093669;28;20422;-73
2022/05/11 09:45:40;;;;;;;19.38;3.53;;;;;;;23.33;40.87;101238.22;5093739;28;20129;-72
2022/05/11 09:48:17;;;;;;;23.23;4.10;;;;;;;23.96;38.35;101244.84;5088368;28;20102;-75
2022/05/11 09:50:44;;;;;;;29.00;3.80;;;;;;;24.15;38.57;101238.47;5077119;28;20172;-74
2022/05/11 09:53:22;;;;;;;16.65;3.25;;;;;;;24.60;36.78;101246.53;5078839;28;20044;-74
2022/05/11 09:55:49;;;;;;;17.90;3.45;;;;;;;24.50;37.28;101235.28;5073558;28;20387;-76
2022/05/11 09:58:27;;;;;;;12.15;3.28;;;;;;;24.84;34.98;101238.53;5072974;28;20039;-74
2022/05/11 10:00:53;;;;;;;14.80;3.28;;;;;;;24.58;35.96;101245.91;5073415;28;20039;-75
2022/05/11 10:03:28;;;;;;;14.82;3.55;;;;;;;24.33;36.29;101245.84;5072573;28;20060;-75
2022/05/11 10:05:54;;;;;;;19.08;3.40;;;;;;;24.23;36.98;101240.94;5073591;28;20028;-76
2022/05/11 10:08:26;;;;;;;14.13;3.40;;;;;;;24.57;36.24;101230.63;5054677;28;20361;-77
2022/05/11 10:10:56;;;;;;;15.68;3.70;;;;;;;24.57;36.57;101236.06;5073231;28;20060;-72
2022/05/11 10:13:23;;;;;;;16.52;3.95;;;;;;;24.96;36.23;101236.75;5072298;28;20491;-74
2022/05/11 10:21:56;;;;;;;15.57;3.33;;;;;;;25.21;34.23;101246.72;5091380;28;19952;-73
2022/05/11 10:24:56;;;;;;;13.90;2.85;;;;;;;25.25;33.92;101239.78;5092744;28;20036;-71
2022/05/11 10:27:39;;;;;;;11.73;2.90;;;;;;;25.03;33.62;101230.41;5092612;28;20028;-73
2022/05/11 10:30:10;;;;;;;10.73;2.95;;;;;;;25.60;32.72;101224.72;5081405;28;20039;-73
2022/05/11 10:32:38;;;;;;;14.18;2.92;;;;;;;24.78;33.12;101234.00;5076978;28;20055;-76
2022/05/11 10:35:10;;;;;;;11.68;2.97;;;;;;;24.99;32.53;101239.03;5087562;28;20138;-77
2022/05/11 10:37:47;;;;;;;11.25;2.72;;;;;;;24.73;33.53;101242.84;5069499;28;20467;-77
2022/05/11 10:40:39;;;;;;;13.70;2.85;;;;;;;23.80;35.39;101232.63;5075499;28;20037;-75
2022/05/11 10:43:19;;;;;;;11.05;2.45;;;;;;;23.85;34.40;101232.78;5076954;28;20072;-75
2022/05/11 10:45:53;;;;;;;12.95;2.60;;;;;;;24.08;34.42;101230.38;5070740;28;20039;-73
2022/05/11 10:48:30;;;;;;;15.13;2.85;;;;;;;23.98;35.52;101230.00;5074781;28;20032;-75
2022/05/11 10:51:06;;;;;;;13.90;2.92;;;;;;;24.39;34.01;101230.53;5057808;28;20064;-73
2022/05/11 10:54:05;;;;;;;17.05;3.08;;;;;;;24.85;33.15;101226.59;5076042;28;20172;-73
2022/05/11 10:56:40;;;;;;;9.23;2.50;;;;;;;25.16;33.17;101230.25;5058765;28;20628;-73
2022/05/11 10:59:24;;;;;;;15.38;2.85;;;;;;;24.90;32.27;101234.94;5077416;28;20016;-75
2022/05/11 11:01:55;;;;;;;13.00;2.53;;;;;;;24.71;32.32;101236.78;5049456;28;20115;-74
2022/05/11 11:04:46;;;;;;;11.25;2.70;;;;;;;24.26;32.70;101239.66;5048615;28;20036;-75
2022/05/11 11:07:11;;;;;;;11.20;2.15;;;;;;;24.38;32.85;101245.19;5079952;28;20566;-75
2022/05/11 11:09:58;;;;;;;7.22;2.28;;;;;;;24.43;31.63;101246.19;5077052;28;20037;-73
2022/05/11 11:12:49;;;;;;;4.90;1.77;;;;;;;23.81;31.85;101239.69;5068331;28;20044;-75
2022/05/11 11:15:15;;;;;;;;;;;;;;;24.16;31.79;101245.56;5069619;28;20123;-77
2022/05/11 11:17:43;;;;;;;5.78;1.70;;;;;;;24.31;31.06;101228.94;5077219;28;19928;-75
2022/05/11 11:20:12;;;;;;;7.40;1.50;;;;;;;24.39;31.42;101234.13;5084280;28;20051;-77
2022/05/11 11:23:00;;;;;;;9.95;1.90;;;;;;;23.98;31.81;101231.91;5088762;28;20044;-76
2022/05/11 11:25:26;;;;;;;6.47;1.90;;;;;;;24.21;32.56;101223.97;5089015;28;20093;-75
2022/05/11 11:28:10;;;;;;;9.80;2.25;;;;;;;23.94;31.64;101235.06;5083292;28;20021;-76
2022/05/11 11:30:37;;;;;;;5.35;1.92;;;;;;;24.29;32.93;101237.31;5079907;28;20044;-74
2022/05/11 11:33:16;;;;;;;7.65;2.00;;;;;;;24.00;31.34;101217.03;5067950;28;20501;-76
2022/05/11 11:35:54;;;;;;;7.25;2.10;;;;;;;23.75;32.07;101215.06;5069224;28;20446;-76
2022/05/11 11:38:43;;;;;;;8.13;1.83;;;;;;;23.70;31.57;101216.78;5071050;28;20078;-76
2022/05/11 11:41:11;;;;;;;6.55;1.70;;;;;;;23.32;31.76;101212.13;5071368;28;20047;-78
2022/05/11 11:43:45;;;;;;;11.48;2.33;;;;;;;23.63;31.99;101202.38;5070616;28;20438;-75
2022/05/11 11:46:40;;;;;;;17.77;2.55;;;;;;;23.61;32.78;101202.59;5061416;28;20037;-76
2022/05/11 11:49:10;;;;;;;11.90;2.60;;;;;;;23.82;33.01;101197.91;5076277;28;20047;-77
2022/05/11 11:51:52;;;;;;;11.77;2.72;;;;;;;24.22;32.19;101201.19;5070878;28;20372;-78
2022/05/11 11:54:38;;;;;;;10.30;2.30;;;;;;;24.07;32.85;101195.25;5079305;28;20034;-74
2022/05/11 11:57:05;;;;;;;15.18;2.50;;;;;;;23.99;33.23;101200.94;5080234;28;20050;-77
2022/05/11 11:59:36;;;;;;;10.45;2.63;;;;;;;24.22;32.63;101193.03;5090648;28;20060;-77
2022/05/11 12:02:29;;;;;;;12.52;3.20;;;;;;;23.83;34.67;101188.72;5073345;28;20032;-74
2022/05/11 12:04:57;;;;;;;11.07;2.45;;;;;;;24.21;33.51;101182.38;5091286;28;20036;-76